sensor_id;sensor_type;location;lat;lon;timestamp;P1;durP1;ratioP1;P2;durP2;ratioP2
7621;SDS011;3852;52.284;8.032;2022-08-03T00:00:07;4.20;;;3.90;;
7621;SDS011;3852;52.284;8.032;2022-08-03T00:02:33;5.17;;;4.10;;
7621;SDS011;3852;52.284;8.032;2022-08-03T00:04:59;4.83;;;3.90;;
7621;SDS011;3852;52.284;8.032;2022-08-03T00:07:25;4.27;;;3.87;;
7621;SDS011;3852;52.284;8.032;2022-08-03T00:09:55;4.20;;;3.90;;
7621;SDS011;3852;52.284;8.032;2022-08-03T00:12:23;4.30;;;3.93;;
7621;SDS011;3852;52.284;8.032;2022-08-03T00:14:49;4.23;;;3.87;;
7621;SDS011;3852;52.284;8.032;2022-08-03T00:17:15;4.03;;;3.63;;
7621;SDS011;3852;52.284;8.032;2022-08-03T00:19:43;4.17;;;3.87;;
7621;SDS011;3852;52.284;8.032;2022-08-03T00:22:09;3.90;;;3.60;;
7621;SDS011;3852;52.284;8.032;2022-08-03T00:24:34;4.77;;;4.27;;
7621;SDS011;3852;52.284;8.032;2022-08-03T00:27:00;4.40;;;4.00;;
7621;SDS011;3852;52.284;8.032;2022-08-03T00:29:26;5.07;;;3.90;;
7621;SDS011;3852;52.284;8.032;2022-08-03T00:31:52;4.40;;;4.10;;
7621;SDS011;3852;52.284;8.032;2022-08-03T00:34:18;3.90;;;3.57;;
7621;SDS011;3852;52.284;8.032;2022-08-03T00:36:44;4.43;;;4.03;;
7621;SDS011;3852;52.284;8.032;2022-08-03T00:39:10;4.40;;;4.00;;
7621;SDS011;3852;52.284;8.032;2022-08-03T00:41:35;4.10;;;3.80;;
7621;SDS011;3852;52.284;8.032;2022-08-03T00:44:01;3.83;;;3.53;;
7621;SDS011;3852;52.284;8.032;2022-08-03T00:46:27;6.73;;;3.90;;
7621;SDS011;3852;52.284;8.032;2022-08-03T00:48:53;4.97;;;4.20;;
7621;SDS011;3852;52.284;8.032;2022-08-03T00:51:19;4.07;;;3.70;;
7621;SDS011;3852;52.284;8.032;2022-08-03T00:53:48;4.33;;;3.93;;
7621;SDS011;3852;52.284;8.032;2022-08-03T00:56:18;4.67;;;4.00;;
7621;SDS011;3852;52.284;8.032;2022-08-03T00:58:44;5.87;;;4.27;;
7621;SDS011;3852;52.284;8.032;2022-08-03T01:01:11;5.43;;;3.97;;
7621;SDS011;3852;52.284;8.032;2022-08-03T01:03:39;4.57;;;4.20;;
7621;SDS011;3852;52.284;8.032;2022-08-03T01:06:16;4.23;;;3.93;;
7621;SDS011;3852;52.284;8.032;2022-08-03T01:11:57;4.30;;;3.90;;
7621;SDS011;3852;52.284;8.032;2022-08-03T01:14:37;4.37;;;3.97;;
7621;SDS011;3852;52.284;8.032;2022-08-03T01:17:22;4.10;;;3.80;;
7621;SDS011;3852;52.284;8.032;2022-08-03T01:20:02;4.10;;;3.80;;
7621;SDS011;3852;52.284;8.032;2022-08-03T01:31:31;4.53;;;4.23;;
7621;SDS011;3852;52.284;8.032;2022-08-03T01:34:05;4.03;;;3.73;;
7621;SDS011;3852;52.284;8.032;2022-08-03T01:36:37;4.17;;;3.87;;
7621;SDS011;3852;52.284;8.032;2022-08-03T01:39:07;4.33;;;4.00;;
7621;SDS011;3852;52.284;8.032;2022-08-03T01:41:57;4.37;;;4.07;;
7621;SDS011;3852;52.284;8.032;2022-08-03T01:44:28;4.33;;;3.93;;
7621;SDS011;3852;52.284;8.032;2022-08-03T01:47:01;4.53;;;4.13;;
7621;SDS011;3852;52.284;8.032;2022-08-03T01:49:29;4.50;;;4.20;;
7621;SDS011;3852;52.284;8.032;2022-08-03T01:52:01;4.53;;;4.13;;
7621;SDS011;3852;52.284;8.032;2022-08-03T01:54:29;4.77;;;4.37;;
7621;SDS011;3852;52.284;8.032;2022-08-03T01:57:06;4.70;;;4.30;;
7621;SDS011;3852;52.284;8.032;2022-08-03T01:59:34;4.63;;;4.20;;
7621;SDS011;3852;52.284;8.032;2022-08-03T02:02:02;5.07;;;4.57;;
7621;SDS011;3852;52.284;8.032;2022-08-03T02:04:31;5.23;;;4.73;;
7621;SDS011;3852;52.284;8.032;2022-08-03T02:06:59;4.93;;;4.53;;
7621;SDS011;3852;52.284;8.032;2022-08-03T02:09:26;4.83;;;4.43;;
7621;SDS011;3852;52.284;8.032;2022-08-03T02:11:54;4.90;;;4.50;;
7621;SDS011;3852;52.284;8.032;2022-08-03T02:14:21;4.80;;;4.40;;
7621;SDS011;3852;52.284;8.032;2022-08-03T02:16:48;4.87;;;4.50;;
7621;SDS011;3852;52.284;8.032;2022-08-03T02:19:15;5.17;;;4.70;;
7621;SDS011;3852;52.284;8.032;2022-08-03T02:21:44;5.40;;;4.90;;
7621;SDS011;3852;52.284;8.032;2022-08-03T02:24:11;5.07;;;4.20;;
7621;SDS011;3852;52.284;8.032;2022-08-03T02:26:37;5.43;;;4.67;;
7621;SDS011;3852;52.284;8.032;2022-08-03T02:29:06;5.03;;;4.63;;
7621;SDS011;3852;52.284;8.032;2022-08-03T02:31:38;5.10;;;4.70;;
7621;SDS011;3852;52.284;8.032;2022-08-03T02:34:07;4.73;;;4.43;;
7621;SDS011;3852;52.284;8.032;2022-08-03T02:36:37;5.23;;;4.73;;
7621;SDS011;3852;52.284;8.032;2022-08-03T02:39:05;4.50;;;4.20;;
7621;SDS011;3852;52.284;8.032;2022-08-03T02:41:45;4.80;;;4.40;;
7621;SDS011;3852;52.284;8.032;2022-08-03T02:44:16;4.80;;;4.40;;
7621;SDS011;3852;52.284;8.032;2022-08-03T02:46:47;5.43;;;4.93;;
7621;SDS011;3852;52.284;8.032;2022-08-03T02:49:18;5.30;;;4.90;;
7621;SDS011;3852;52.284;8.032;2022-08-03T02:51:46;5.27;;;4.77;;
7621;SDS011;3852;52.284;8.032;2022-08-03T02:54:14;5.10;;;4.70;;
7621;SDS011;3852;52.284;8.032;2022-08-03T02:56:42;5.20;;;4.70;;
7621;SDS011;3852;52.284;8.032;2022-08-03T02:59:10;5.30;;;4.80;;
7621;SDS011;3852;52.284;8.032;2022-08-03T03:01:37;4.77;;;4.37;;
7621;SDS011;3852;52.284;8.032;2022-08-03T03:04:04;5.00;;;4.60;;
7621;SDS011;3852;52.284;8.032;2022-08-03T03:06:31;5.40;;;5.00;;
7621;SDS011;3852;52.284;8.032;2022-08-03T03:08:57;5.90;;;5.40;;
7621;SDS011;3852;52.284;8.032;2022-08-03T03:11:24;5.90;;;5.30;;
7621;SDS011;3852;52.284;8.032;2022-08-03T03:13:50;6.20;;;5.20;;
7621;SDS011;3852;52.284;8.032;2022-08-03T03:16:17;5.27;;;4.90;;
7621;SDS011;3852;52.284;8.032;2022-08-03T03:18:44;6.13;;;5.07;;
7621;SDS011;3852;52.284;8.032;2022-08-03T03:21:15;5.83;;;5.30;;
7621;SDS011;3852;52.284;8.032;2022-08-03T03:23:43;6.57;;;5.97;;
7621;SDS011;3852;52.284;8.032;2022-08-03T03:26:11;6.00;;;5.40;;
7621;SDS011;3852;52.284;8.032;2022-08-03T03:28:39;5.77;;;5.23;;
7621;SDS011;3852;52.284;8.032;2022-08-03T03:31:06;5.50;;;5.10;;
7621;SDS011;3852;52.284;8.032;2022-08-03T03:33:33;6.33;;;5.20;;
7621;SDS011;3852;52.284;8.032;2022-08-03T03:35:59;5.53;;;5.13;;
7621;SDS011;3852;52.284;8.032;2022-08-03T03:38:25;5.80;;;5.40;;
7621;SDS011;3852;52.284;8.032;2022-08-03T03:40:52;5.70;;;5.23;;
7621;SDS011;3852;52.284;8.032;2022-08-03T03:43:19;5.87;;;5.37;;
7621;SDS011;3852;52.284;8.032;2022-08-03T03:45:47;6.03;;;5.53;;
7621;SDS011;3852;52.284;8.032;2022-08-03T03:48:13;5.83;;;5.33;;
7621;SDS011;3852;52.284;8.032;2022-08-03T03:50:40;5.80;;;5.30;;
7621;SDS011;3852;52.284;8.032;2022-08-03T03:53:08;5.70;;;5.20;;
7621;SDS011;3852;52.284;8.032;2022-08-03T03:55:36;5.90;;;5.40;;
7621;SDS011;3852;52.284;8.032;2022-08-03T03:58:03;6.00;;;5.50;;
7621;SDS011;3852;52.284;8.032;2022-08-03T04:00:29;6.37;;;5.50;;
7621;SDS011;3852;52.284;8.032;2022-08-03T04:02:56;5.53;;;5.03;;
7621;SDS011;3852;52.284;8.032;2022-08-03T04:05:21;5.83;;;5.23;;
7621;SDS011;3852;52.284;8.032;2022-08-03T04:08:06;5.83;;;5.33;;
7621;SDS011;3852;52.284;8.032;2022-08-03T04:13:39;6.30;;;5.70;;
7621;SDS011;3852;52.284;8.032;2022-08-03T04:16:32;5.70;;;5.30;;
7621;SDS011;3852;52.284;8.032;2022-08-03T04:19:09;6.37;;;5.87;;
7621;SDS011;3852;52.284;8.032;2022-08-03T04:21:40;6.57;;;5.10;;
7621;SDS011;3852;52.284;8.032;2022-08-03T04:24:09;5.87;;;5.37;;
7621;SDS011;3852;52.284;8.032;2022-08-03T04:26:38;6.20;;;5.70;;
7621;SDS011;3852;52.284;8.032;2022-08-03T04:29:08;5.80;;;5.30;;
7621;SDS011;3852;52.284;8.032;2022-08-03T04:31:36;6.07;;;5.57;;
7621;SDS011;3852;52.284;8.032;2022-08-03T04:34:04;6.97;;;5.53;;
7621;SDS011;3852;52.284;8.032;2022-08-03T04:36:35;6.87;;;6.07;;
7621;SDS011;3852;52.284;8.032;2022-08-03T04:39:17;6.07;;;5.57;;
7621;SDS011;3852;52.284;8.032;2022-08-03T04:41:50;6.47;;;5.87;;
7621;SDS011;3852;52.284;8.032;2022-08-03T04:44:20;7.13;;;5.60;;
7621;SDS011;3852;52.284;8.032;2022-08-03T04:46:48;6.57;;;5.97;;
7621;SDS011;3852;52.284;8.032;2022-08-03T04:49:15;6.27;;;5.77;;
7621;SDS011;3852;52.284;8.032;2022-08-03T04:51:42;6.63;;;6.07;;
7621;SDS011;3852;52.284;8.032;2022-08-03T04:54:12;6.30;;;5.70;;
7621;SDS011;3852;52.284;8.032;2022-08-03T04:56:39;6.60;;;5.97;;
7621;SDS011;3852;52.284;8.032;2022-08-03T04:59:05;6.80;;;6.13;;
7621;SDS011;3852;52.284;8.032;2022-08-03T05:01:32;7.10;;;6.20;;
7621;SDS011;3852;52.284;8.032;2022-08-03T05:03:58;7.07;;;6.00;;
7621;SDS011;3852;52.284;8.032;2022-08-03T05:06:24;7.03;;;6.43;;
7621;SDS011;3852;52.284;8.032;2022-08-03T05:08:50;6.77;;;6.17;;
7621;SDS011;3852;52.284;8.032;2022-08-03T05:11:18;7.27;;;6.23;;
7621;SDS011;3852;52.284;8.032;2022-08-03T05:13:44;5.90;;;5.40;;
7621;SDS011;3852;52.284;8.032;2022-08-03T05:16:10;6.73;;;6.13;;
7621;SDS011;3852;52.284;8.032;2022-08-03T05:18:37;6.20;;;5.60;;
7621;SDS011;3852;52.284;8.032;2022-08-03T05:21:10;5.60;;;4.97;;
7621;SDS011;3852;52.284;8.032;2022-08-03T05:23:38;6.70;;;6.10;;
7621;SDS011;3852;52.284;8.032;2022-08-03T05:26:05;5.57;;;4.93;;
7621;SDS011;3852;52.284;8.032;2022-08-03T05:28:31;5.50;;;5.00;;
7621;SDS011;3852;52.284;8.032;2022-08-03T05:30:56;5.87;;;5.30;;
7621;SDS011;3852;52.284;8.032;2022-08-03T05:33:22;7.10;;;5.60;;
7621;SDS011;3852;52.284;8.032;2022-08-03T05:35:48;7.20;;;4.87;;
7621;SDS011;3852;52.284;8.032;2022-08-03T05:38:14;5.60;;;5.10;;
7621;SDS011;3852;52.284;8.032;2022-08-03T05:40:40;5.53;;;5.03;;
7621;SDS011;3852;52.284;8.032;2022-08-03T05:43:06;5.00;;;4.60;;
7621;SDS011;3852;52.284;8.032;2022-08-03T05:45:32;6.00;;;5.10;;
7621;SDS011;3852;52.284;8.032;2022-08-03T05:47:57;5.20;;;4.40;;
7621;SDS011;3852;52.284;8.032;2022-08-03T05:50:23;7.20;;;4.53;;
7621;SDS011;3852;52.284;8.032;2022-08-03T05:52:49;8.00;;;5.03;;
7621;SDS011;3852;52.284;8.032;2022-08-03T05:55:15;5.17;;;4.30;;
7621;SDS011;3852;52.284;8.032;2022-08-03T05:57:41;6.23;;;4.40;;
7621;SDS011;3852;52.284;8.032;2022-08-03T06:00:08;4.83;;;4.43;;
7621;SDS011;3852;52.284;8.032;2022-08-03T06:02:35;5.10;;;4.40;;
7621;SDS011;3852;52.284;8.032;2022-08-03T06:05:02;6.93;;;4.57;;
7621;SDS011;3852;52.284;8.032;2022-08-03T06:07:28;12.47;;;5.57;;
7621;SDS011;3852;52.284;8.032;2022-08-03T06:09:54;4.53;;;4.10;;
7621;SDS011;3852;52.284;8.032;2022-08-03T06:12:20;6.50;;;4.63;;
7621;SDS011;3852;52.284;8.032;2022-08-03T06:14:46;5.07;;;4.20;;
7621;SDS011;3852;52.284;8.032;2022-08-03T06:17:11;7.43;;;4.37;;
7621;SDS011;3852;52.284;8.032;2022-08-03T06:19:37;5.40;;;4.27;;
7621;SDS011;3852;52.284;8.032;2022-08-03T06:22:03;5.47;;;3.73;;
7621;SDS011;3852;52.284;8.032;2022-08-03T06:24:29;9.20;;;3.80;;
7621;SDS011;3852;52.284;8.032;2022-08-03T06:26:55;4.90;;;3.80;;
7621;SDS011;3852;52.284;8.032;2022-08-03T06:29:20;5.43;;;4.10;;
7621;SDS011;3852;52.284;8.032;2022-08-03T06:31:46;7.13;;;4.27;;
7621;SDS011;3852;52.284;8.032;2022-08-03T06:34:12;6.80;;;4.20;;
7621;SDS011;3852;52.284;8.032;2022-08-03T06:36:38;5.60;;;3.77;;
7621;SDS011;3852;52.284;8.032;2022-08-03T06:39:04;4.97;;;3.77;;
7621;SDS011;3852;52.284;8.032;2022-08-03T06:41:33;4.80;;;4.00;;
7621;SDS011;3852;52.284;8.032;2022-08-03T06:43:59;4.80;;;3.77;;
7621;SDS011;3852;52.284;8.032;2022-08-03T06:46:24;5.23;;;3.70;;
7621;SDS011;3852;52.284;8.032;2022-08-03T06:48:50;4.43;;;3.47;;
7621;SDS011;3852;52.284;8.032;2022-08-03T06:51:16;3.80;;;3.10;;
7621;SDS011;3852;52.284;8.032;2022-08-03T06:53:42;4.23;;;3.50;;
7621;SDS011;3852;52.284;8.032;2022-08-03T06:56:08;4.93;;;3.37;;
7621;SDS011;3852;52.284;8.032;2022-08-03T06:58:34;5.60;;;3.70;;
7621;SDS011;3852;52.284;8.032;2022-08-03T07:00:59;3.73;;;3.00;;
7621;SDS011;3852;52.284;8.032;2022-08-03T07:03:25;3.93;;;3.50;;
7621;SDS011;3852;52.284;8.032;2022-08-03T07:05:51;3.70;;;3.20;;
7621;SDS011;3852;52.284;8.032;2022-08-03T07:08:19;6.20;;;3.50;;
7621;SDS011;3852;52.284;8.032;2022-08-03T07:10:45;4.87;;;3.13;;
7621;SDS011;3852;52.284;8.032;2022-08-03T07:13:11;3.73;;;3.43;;
7621;SDS011;3852;52.284;8.032;2022-08-03T07:15:37;3.83;;;3.10;;
7621;SDS011;3852;52.284;8.032;2022-08-03T07:18:04;2.87;;;2.67;;
7621;SDS011;3852;52.284;8.032;2022-08-03T07:20:31;4.70;;;2.80;;
7621;SDS011;3852;52.284;8.032;2022-08-03T07:22:57;5.43;;;2.93;;
7621;SDS011;3852;52.284;8.032;2022-08-03T07:25:23;6.40;;;3.50;;
7621;SDS011;3852;52.284;8.032;2022-08-03T07:27:49;4.27;;;3.40;;
7621;SDS011;3852;52.284;8.032;2022-08-03T07:30:15;5.33;;;3.20;;
7621;SDS011;3852;52.284;8.032;2022-08-03T07:32:41;6.60;;;4.20;;
7621;SDS011;3852;52.284;8.032;2022-08-03T07:35:08;6.37;;;2.87;;
7621;SDS011;3852;52.284;8.032;2022-08-03T07:37:35;9.13;;;3.30;;
7621;SDS011;3852;52.284;8.032;2022-08-03T07:40:02;3.30;;;2.90;;
7621;SDS011;3852;52.284;8.032;2022-08-03T07:42:29;4.80;;;3.20;;
7621;SDS011;3852;52.284;8.032;2022-08-03T07:44:56;3.20;;;2.90;;
7621;SDS011;3852;52.284;8.032;2022-08-03T07:47:24;5.03;;;3.10;;
7621;SDS011;3852;52.284;8.032;2022-08-03T07:49:53;3.03;;;2.83;;
7621;SDS011;3852;52.284;8.032;2022-08-03T07:52:19;3.20;;;2.90;;
7621;SDS011;3852;52.284;8.032;2022-08-03T07:55:04;4.07;;;2.67;;
7621;SDS011;3852;52.284;8.032;2022-08-03T07:57:31;4.43;;;2.87;;
7621;SDS011;3852;52.284;8.032;2022-08-03T07:59:57;8.33;;;2.63;;
7621;SDS011;3852;52.284;8.032;2022-08-03T08:02:22;2.87;;;2.67;;
7621;SDS011;3852;52.284;8.032;2022-08-03T08:04:48;3.53;;;2.50;;
7621;SDS011;3852;52.284;8.032;2022-08-03T08:07:14;3.93;;;2.73;;
7621;SDS011;3852;52.284;8.032;2022-08-03T08:09:40;2.83;;;2.53;;
7621;SDS011;3852;52.284;8.032;2022-08-03T08:12:06;3.40;;;2.77;;
7621;SDS011;3852;52.284;8.032;2022-08-03T08:14:33;7.17;;;2.87;;
7621;SDS011;3852;52.284;8.032;2022-08-03T08:16:59;5.03;;;3.00;;
7621;SDS011;3852;52.284;8.032;2022-08-03T08:19:25;4.17;;;2.77;;
7621;SDS011;3852;52.284;8.032;2022-08-03T08:21:51;4.40;;;2.73;;
7621;SDS011;3852;52.284;8.032;2022-08-03T08:24:17;5.33;;;2.83;;
7621;SDS011;3852;52.284;8.032;2022-08-03T08:26:43;3.90;;;2.33;;
7621;SDS011;3852;52.284;8.032;2022-08-03T08:29:09;3.47;;;2.83;;
7621;SDS011;3852;52.284;8.032;2022-08-03T08:31:34;5.03;;;3.00;;
7621;SDS011;3852;52.284;8.032;2022-08-03T08:34:00;4.07;;;2.73;;
7621;SDS011;3852;52.284;8.032;2022-08-03T08:36:30;3.20;;;2.90;;
7621;SDS011;3852;52.284;8.032;2022-08-03T08:38:57;5.63;;;2.80;;
7621;SDS011;3852;52.284;8.032;2022-08-03T08:41:23;3.50;;;2.50;;
7621;SDS011;3852;52.284;8.032;2022-08-03T08:43:52;3.13;;;2.83;;
7621;SDS011;3852;52.284;8.032;2022-08-03T08:46:19;7.03;;;2.97;;
7621;SDS011;3852;52.284;8.032;2022-08-03T08:48:45;4.40;;;2.70;;
7621;SDS011;3852;52.284;8.032;2022-08-03T08:51:13;2.73;;;2.53;;
7621;SDS011;3852;52.284;8.032;2022-08-03T08:53:44;3.50;;;2.73;;
7621;SDS011;3852;52.284;8.032;2022-08-03T08:56:15;3.83;;;2.60;;
7621;SDS011;3852;52.284;8.032;2022-08-03T08:58:51;3.63;;;2.60;;
7621;SDS011;3852;52.284;8.032;2022-08-03T09:01:22;3.70;;;2.50;;
7621;SDS011;3852;52.284;8.032;2022-08-03T09:03:49;3.93;;;2.70;;
7621;SDS011;3852;52.284;8.032;2022-08-03T09:06:19;4.10;;;2.47;;
7621;SDS011;3852;52.284;8.032;2022-08-03T09:08:46;4.80;;;2.70;;
7621;SDS011;3852;52.284;8.032;2022-08-03T09:11:12;3.27;;;2.47;;
7621;SDS011;3852;52.284;8.032;2022-08-03T09:13:38;5.43;;;2.73;;
7621;SDS011;3852;52.284;8.032;2022-08-03T09:18:38;4.30;;;2.67;;
7621;SDS011;3852;52.284;8.032;2022-08-03T09:21:16;3.53;;;2.50;;
7621;SDS011;3852;52.284;8.032;2022-08-03T09:23:47;4.83;;;2.70;;
7621;SDS011;3852;52.284;8.032;2022-08-03T09:26:19;6.27;;;2.30;;
7621;SDS011;3852;52.284;8.032;2022-08-03T09:28:52;3.77;;;2.67;;
7621;SDS011;3852;52.284;8.032;2022-08-03T09:31:33;4.13;;;2.73;;
7621;SDS011;3852;52.284;8.032;2022-08-03T09:34:06;5.53;;;2.77;;
7621;SDS011;3852;52.284;8.032;2022-08-03T09:36:35;6.20;;;2.53;;
7621;SDS011;3852;52.284;8.032;2022-08-03T09:39:25;3.03;;;2.43;;
7621;SDS011;3852;52.284;8.032;2022-08-03T09:44:48;2.30;;;2.10;;
7621;SDS011;3852;52.284;8.032;2022-08-03T09:47:25;4.03;;;2.30;;
7621;SDS011;3852;52.284;8.032;2022-08-03T09:52:30;4.97;;;2.30;;
7621;SDS011;3852;52.284;8.032;2022-08-03T09:55:02;2.50;;;2.03;;
7621;SDS011;3852;52.284;8.032;2022-08-03T09:57:36;3.00;;;2.27;;
7621;SDS011;3852;52.284;8.032;2022-08-03T10:00:11;3.93;;;2.23;;
7621;SDS011;3852;52.284;8.032;2022-08-03T10:02:39;4.07;;;2.27;;
7621;SDS011;3852;52.284;8.032;2022-08-03T10:05:07;4.17;;;2.40;;
7621;SDS011;3852;52.284;8.032;2022-08-03T10:07:43;3.30;;;2.60;;
7621;SDS011;3852;52.284;8.032;2022-08-03T10:10:11;4.90;;;2.57;;
7621;SDS011;3852;52.284;8.032;2022-08-03T10:12:38;2.60;;;2.33;;
7621;SDS011;3852;52.284;8.032;2022-08-03T10:15:06;4.23;;;2.50;;
7621;SDS011;3852;52.284;8.032;2022-08-03T10:17:33;10.50;;;6.73;;
7621;SDS011;3852;52.284;8.032;2022-08-03T10:20:00;6.27;;;2.63;;
7621;SDS011;3852;52.284;8.032;2022-08-03T10:22:28;6.53;;;2.47;;
7621;SDS011;3852;52.284;8.032;2022-08-03T10:24:59;6.80;;;2.57;;
7621;SDS011;3852;52.284;8.032;2022-08-03T10:27:32;3.50;;;2.40;;
7621;SDS011;3852;52.284;8.032;2022-08-03T10:30:02;3.50;;;2.30;;
7621;SDS011;3852;52.284;8.032;2022-08-03T10:35:08;3.77;;;2.97;;
7621;SDS011;3852;52.284;8.032;2022-08-03T10:37:40;3.53;;;2.60;;
7621;SDS011;3852;52.284;8.032;2022-08-03T10:40:11;7.17;;;2.57;;
7621;SDS011;3852;52.284;8.032;2022-08-03T10:42:41;6.83;;;2.53;;
7621;SDS011;3852;52.284;8.032;2022-08-03T10:45:12;5.47;;;2.37;;
7621;SDS011;3852;52.284;8.032;2022-08-03T10:47:48;5.23;;;2.57;;
7621;SDS011;3852;52.284;8.032;2022-08-03T10:50:15;6.27;;;2.63;;
7621;SDS011;3852;52.284;8.032;2022-08-03T10:52:58;3.10;;;2.27;;
7621;SDS011;3852;52.284;8.032;2022-08-03T11:01:18;4.17;;;2.50;;
7621;SDS011;3852;52.284;8.032;2022-08-03T11:04:18;3.80;;;2.50;;
7621;SDS011;3852;52.284;8.032;2022-08-03T11:06:51;6.13;;;2.87;;
7621;SDS011;3852;52.284;8.032;2022-08-03T11:09:43;3.83;;;2.07;;
7621;SDS011;3852;52.284;8.032;2022-08-03T11:12:24;4.60;;;2.50;;
7621;SDS011;3852;52.284;8.032;2022-08-03T11:14:53;3.20;;;2.20;;
7621;SDS011;3852;52.284;8.032;2022-08-03T11:17:21;4.40;;;2.40;;
7621;SDS011;3852;52.284;8.032;2022-08-03T11:19:48;3.73;;;2.70;;
7621;SDS011;3852;52.284;8.032;2022-08-03T11:22:16;4.30;;;2.77;;
7621;SDS011;3852;52.284;8.032;2022-08-03T11:27:19;3.77;;;2.53;;
7621;SDS011;3852;52.284;8.032;2022-08-03T11:45:58;4.23;;;2.30;;
7621;SDS011;3852;52.284;8.032;2022-08-03T11:48:35;5.07;;;2.30;;
7621;SDS011;3852;52.284;8.032;2022-08-03T11:51:04;2.80;;;2.40;;
7621;SDS011;3852;52.284;8.032;2022-08-03T11:53:32;3.30;;;2.33;;
7621;SDS011;3852;52.284;8.032;2022-08-03T11:55:59;4.23;;;2.73;;
7621;SDS011;3852;52.284;8.032;2022-08-03T11:58:26;5.03;;;2.40;;
7621;SDS011;3852;52.284;8.032;2022-08-03T12:01:02;2.77;;;2.47;;
7621;SDS011;3852;52.284;8.032;2022-08-03T12:03:31;7.33;;;2.53;;
7621;SDS011;3852;52.284;8.032;2022-08-03T12:05:58;2.87;;;2.03;;
7621;SDS011;3852;52.284;8.032;2022-08-03T12:08:30;7.07;;;2.40;;
7621;SDS011;3852;52.284;8.032;2022-08-03T12:10:57;6.60;;;2.40;;
7621;SDS011;3852;52.284;8.032;2022-08-03T12:13:34;5.40;;;2.30;;
7621;SDS011;3852;52.284;8.032;2022-08-03T12:16:08;6.70;;;2.40;;
7621;SDS011;3852;52.284;8.032;2022-08-03T12:18:34;4.33;;;2.20;;
7621;SDS011;3852;52.284;8.032;2022-08-03T12:21:10;5.10;;;2.30;;
7621;SDS011;3852;52.284;8.032;2022-08-03T12:23:37;4.30;;;2.13;;
7621;SDS011;3852;52.284;8.032;2022-08-03T12:26:05;6.80;;;2.73;;
7621;SDS011;3852;52.284;8.032;2022-08-03T12:28:33;4.07;;;2.40;;
7621;SDS011;3852;52.284;8.032;2022-08-03T12:31:05;3.53;;;2.47;;
7621;SDS011;3852;52.284;8.032;2022-08-03T12:33:53;3.30;;;2.20;;
7621;SDS011;3852;52.284;8.032;2022-08-03T12:36:18;2.70;;;2.07;;
7621;SDS011;3852;52.284;8.032;2022-08-03T12:38:44;7.93;;;2.40;;
7621;SDS011;3852;52.284;8.032;2022-08-03T12:44:01;3.30;;;2.40;;
7621;SDS011;3852;52.284;8.032;2022-08-03T12:46:37;4.20;;;2.30;;
7621;SDS011;3852;52.284;8.032;2022-08-03T12:49:12;6.00;;;2.50;;
7621;SDS011;3852;52.284;8.032;2022-08-03T12:54:06;5.47;;;2.07;;
7621;SDS011;3852;52.284;8.032;2022-08-03T12:56:34;3.33;;;2.60;;
7621;SDS011;3852;52.284;8.032;2022-08-03T12:59:27;3.87;;;2.30;;
7621;SDS011;3852;52.284;8.032;2022-08-03T13:02:16;6.47;;;2.63;;
7621;SDS011;3852;52.284;8.032;2022-08-03T13:04:45;4.07;;;2.40;;
7621;SDS011;3852;52.284;8.032;2022-08-03T13:07:12;5.60;;;2.63;;
7621;SDS011;3852;52.284;8.032;2022-08-03T13:09:44;4.07;;;2.43;;
7621;SDS011;3852;52.284;8.032;2022-08-03T13:12:13;4.33;;;2.30;;
7621;SDS011;3852;52.284;8.032;2022-08-03T13:14:42;3.47;;;2.30;;
7621;SDS011;3852;52.284;8.032;2022-08-03T13:17:12;6.63;;;2.77;;
7621;SDS011;3852;52.284;8.032;2022-08-03T13:19:40;3.57;;;2.47;;
7621;SDS011;3852;52.284;8.032;2022-08-03T13:22:40;6.67;;;2.37;;
7621;SDS011;3852;52.284;8.032;2022-08-03T13:24:59;4.50;;;2.50;;
7621;SDS011;3852;52.284;8.032;2022-08-03T13:27:27;3.90;;;2.67;;
7621;SDS011;3852;52.284;8.032;2022-08-03T13:29:54;3.33;;;2.50;;
7621;SDS011;3852;52.284;8.032;2022-08-03T13:32:20;5.93;;;2.63;;
7621;SDS011;3852;52.284;8.032;2022-08-03T13:34:47;5.80;;;2.33;;
7621;SDS011;3852;52.284;8.032;2022-08-03T13:37:13;4.13;;;2.57;;
7621;SDS011;3852;52.284;8.032;2022-08-03T13:39:39;6.67;;;2.40;;
7621;SDS011;3852;52.284;8.032;2022-08-03T13:42:06;6.83;;;2.23;;
7621;SDS011;3852;52.284;8.032;2022-08-03T13:44:32;6.10;;;2.40;;
7621;SDS011;3852;52.284;8.032;2022-08-03T13:47:00;6.23;;;2.50;;
7621;SDS011;3852;52.284;8.032;2022-08-03T13:49:27;2.87;;;2.43;;
7621;SDS011;3852;52.284;8.032;2022-08-03T13:51:54;4.63;;;2.50;;
7621;SDS011;3852;52.284;8.032;2022-08-03T13:54:20;4.07;;;2.23;;
7621;SDS011;3852;52.284;8.032;2022-08-03T13:56:47;4.43;;;2.50;;
7621;SDS011;3852;52.284;8.032;2022-08-03T13:59:22;5.03;;;2.57;;
7621;SDS011;3852;52.284;8.032;2022-08-03T14:01:49;5.73;;;3.50;;
7621;SDS011;3852;52.284;8.032;2022-08-03T14:04:18;4.97;;;2.80;;
7621;SDS011;3852;52.284;8.032;2022-08-03T14:06:45;6.10;;;2.70;;
7621;SDS011;3852;52.284;8.032;2022-08-03T14:09:11;7.33;;;2.43;;
7621;SDS011;3852;52.284;8.032;2022-08-03T14:11:38;4.27;;;2.53;;
7621;SDS011;3852;52.284;8.032;2022-08-03T14:14:05;5.63;;;2.50;;
7621;SDS011;3852;52.284;8.032;2022-08-03T14:16:31;5.63;;;2.53;;
7621;SDS011;3852;52.284;8.032;2022-08-03T14:18:56;4.10;;;2.30;;
7621;SDS011;3852;52.284;8.032;2022-08-03T14:21:22;3.07;;;2.40;;
7621;SDS011;3852;52.284;8.032;2022-08-03T14:23:50;3.03;;;2.23;;
7621;SDS011;3852;52.284;8.032;2022-08-03T14:26:16;4.23;;;2.10;;
7621;SDS011;3852;52.284;8.032;2022-08-03T14:28:44;3.20;;;2.10;;
7621;SDS011;3852;52.284;8.032;2022-08-03T14:31:11;5.70;;;2.10;;
7621;SDS011;3852;52.284;8.032;2022-08-03T14:33:37;6.33;;;2.20;;
7621;SDS011;3852;52.284;8.032;2022-08-03T14:36:03;4.70;;;1.97;;
7621;SDS011;3852;52.284;8.032;2022-08-03T14:38:29;5.37;;;2.90;;
7621;SDS011;3852;52.284;8.032;2022-08-03T14:40:55;4.70;;;2.10;;
7621;SDS011;3852;52.284;8.032;2022-08-03T14:43:21;5.13;;;2.30;;
7621;SDS011;3852;52.284;8.032;2022-08-03T14:45:48;4.93;;;2.27;;
7621;SDS011;3852;52.284;8.032;2022-08-03T14:48:19;5.40;;;2.00;;
7621;SDS011;3852;52.284;8.032;2022-08-03T14:50:46;2.77;;;1.80;;
7621;SDS011;3852;52.284;8.032;2022-08-03T14:53:12;3.30;;;2.17;;
7621;SDS011;3852;52.284;8.032;2022-08-03T14:55:38;7.43;;;2.20;;
7621;SDS011;3852;52.284;8.032;2022-08-03T14:58:03;5.50;;;2.07;;
7621;SDS011;3852;52.284;8.032;2022-08-03T15:00:31;8.23;;;2.80;;
7621;SDS011;3852;52.284;8.032;2022-08-03T15:02:58;4.50;;;1.93;;
7621;SDS011;3852;52.284;8.032;2022-08-03T15:05:24;2.73;;;2.20;;
7621;SDS011;3852;52.284;8.032;2022-08-03T15:07:50;4.30;;;2.20;;
7621;SDS011;3852;52.284;8.032;2022-08-03T15:10:15;5.10;;;2.20;;
7621;SDS011;3852;52.284;8.032;2022-08-03T15:12:42;5.03;;;2.20;;
7621;SDS011;3852;52.284;8.032;2022-08-03T15:15:08;4.10;;;2.10;;
7621;SDS011;3852;52.284;8.032;2022-08-03T15:17:34;5.70;;;2.20;;
7621;SDS011;3852;52.284;8.032;2022-08-03T15:20:00;5.47;;;1.93;;
7621;SDS011;3852;52.284;8.032;2022-08-03T15:22:26;7.27;;;2.27;;
7621;SDS011;3852;52.284;8.032;2022-08-03T15:24:51;3.70;;;1.95;;
7621;SDS011;3852;52.284;8.032;2022-08-03T15:27:21;5.55;;;1.92;;
7621;SDS011;3852;52.284;8.032;2022-08-03T15:29:47;4.53;;;2.10;;
7621;SDS011;3852;52.284;8.032;2022-08-03T15:32:13;3.30;;;2.20;;
7621;SDS011;3852;52.284;8.032;2022-08-03T15:34:38;4.30;;;2.30;;
7621;SDS011;3852;52.284;8.032;2022-08-03T15:37:05;6.28;;;2.20;;
7621;SDS011;3852;52.284;8.032;2022-08-03T15:39:31;5.70;;;2.20;;
7621;SDS011;3852;52.284;8.032;2022-08-03T15:41:56;7.15;;;2.38;;
7621;SDS011;3852;52.284;8.032;2022-08-03T15:44:22;5.63;;;2.15;;
7621;SDS011;3852;52.284;8.032;2022-08-03T15:46:48;5.55;;;2.10;;
7621;SDS011;3852;52.284;8.032;2022-08-03T15:49:17;8.07;;;2.33;;
7621;SDS011;3852;52.284;8.032;2022-08-03T15:51:44;4.10;;;2.37;;
7621;SDS011;3852;52.284;8.032;2022-08-03T15:54:11;5.63;;;2.30;;
7621;SDS011;3852;52.284;8.032;2022-08-03T15:56:36;2.97;;;1.80;;
7621;SDS011;3852;52.284;8.032;2022-08-03T15:59:03;7.50;;;2.30;;
7621;SDS011;3852;52.284;8.032;2022-08-03T16:01:29;2.90;;;2.10;;
7621;SDS011;3852;52.284;8.032;2022-08-03T16:03:54;5.30;;;2.30;;
7621;SDS011;3852;52.284;8.032;2022-08-03T16:06:20;4.77;;;2.20;;
7621;SDS011;3852;52.284;8.032;2022-08-03T16:08:46;8.50;;;2.20;;
7621;SDS011;3852;52.284;8.032;2022-08-03T16:11:12;4.67;;;2.17;;
7621;SDS011;3852;52.284;8.032;2022-08-03T16:13:38;7.33;;;2.43;;
7621;SDS011;3852;52.284;8.032;2022-08-03T16:16:04;7.23;;;2.10;;
7621;SDS011;3852;52.284;8.032;2022-08-03T16:18:29;8.50;;;2.60;;